This is the latest recevied weather packets stored in our database for station/object K4IR. If no packets are shown the sender has not sent any weather packets the latest 10 day(s).
| Time | Temp. | Humidity | Pressure | Rain* | Wind** | Luminosity | Snow |
|---|---|---|---|---|---|---|---|
| 1777670996 | 18.33° C | 73% | 1012.3 hPa | 0 mm | - | 136 W/m² | - |
| 1777670396 | 18.33° C | 73% | 1012.3 hPa | 0 mm | - | 154 W/m² | - |
| 1777669790 | 18.89° C | 70% | 1012.6 hPa | 0 mm | - | 122 W/m² | - |
| 1777669189 | 19.44° C | 69% | 1012.2 hPa | 0 mm | - | 313 W/m² | - |
| 1777668589 | 19.44° C | 69% | 1012.6 hPa | 0 mm | - | 245 W/m² | - |
| 1777667987 | 19.44° C | 70% | 1012.7 hPa | 0 mm | - | 293 W/m² | - |
| 1777667388 | 18.89° C | 70% | 1012.8 hPa | 0 mm | - | 225 W/m² | - |
| 1777666786 | 18.89° C | 71% | 1012.8 hPa | 0 mm | - | 243 W/m² | - |
| 1777666186 | 18.89° C | 72% | 1012.8 hPa | 0 mm | - | 233 W/m² | - |
| 1777665587 | 18.33° C | 72% | 1012.4 hPa | 0 mm | - | 264 W/m² | - |
| 1777664985 | 18.33° C | 72% | 1012.7 hPa | 0 mm | - | 195 W/m² | - |
| 1777664383 | 18.33° C | 73% | 1013.1 hPa | 0 mm | - | 228 W/m² | - |
| 1777663779 | 18.33° C | 71% | 1013 hPa | 0 mm | - | 208 W/m² | - |
| 1777663178 | 17.78° C | 72% | 1012.9 hPa | 0 mm | - | 245 W/m² | - |
| 1777662578 | 18.33° C | 70% | 1013.1 hPa | 0 mm | - | 232 W/m² | - |
| 1777661975 | 18.33° C | 72% | 1013.3 hPa | 0 mm | - | 276 W/m² | - |
| 1777661373 | 18.33° C | 72% | 1013.6 hPa | 0 mm | - | 215 W/m² | - |
| 1777660770 | 17.78° C | 73% | 1013.5 hPa | 0 mm | - | 207 W/m² | - |
| 1777660170 | 17.78° C | 73% | 1013.8 hPa | 0 mm | - | 192 W/m² | - |
| 1777659569 | 17.22° C | 74% | 1013.8 hPa | 0 mm | - | 178 W/m² | - |
| 1777658969 | 17.22° C | 74% | 1014.1 hPa | 0 mm | - | 167 W/m² | - |
| 1777658369 | 17.22° C | 76% | 1014 hPa | 0 mm | - | 174 W/m² | - |
| 1777657768 | 17.22° C | 75% | 1014.1 hPa | 0 mm | - | 132 W/m² | - |
| 1777657164 | 17.22° C | 75% | 1014.2 hPa | 0 mm | - | 181 W/m² | - |
| 1777656562 | 17.22° C | 75% | 1013.9 hPa | 0 mm | - | 169 W/m² | - |
* Rain latest hour (hover to see other rain measurements)
** Current wind speed in m/s (hover to see current wind gust speed)